sensor_id;sensor_type;location;lat;lon;timestamp;pressure;altitude;pressure_sealevel;temperature;humidity
46534;BME280;32260;52.008;4.752;2023-12-20T00:00:50;101692.22;;;9.11;70.84
46534;BME280;32260;52.008;4.752;2023-12-20T00:03:16;101688.72;;;9.04;70.47
46534;BME280;32260;52.008;4.752;2023-12-20T00:05:45;101700.16;;;9.01;70.46
46534;BME280;32260;52.008;4.752;2023-12-20T00:08:11;101695.75;;;8.96;69.63
46534;BME280;32260;52.008;4.752;2023-12-20T00:10:38;101701.94;;;9.02;70.08
46534;BME280;32260;52.008;4.752;2023-12-20T00:13:04;101708.97;;;9.00;70.29
46534;BME280;32260;52.008;4.752;2023-12-20T00:15:30;101698.41;;;8.97;70.11
46534;BME280;32260;52.008;4.752;2023-12-20T00:17:56;101707.22;;;9.04;70.13
46534;BME280;32260;52.008;4.752;2023-12-20T00:20:22;101705.44;;;9.04;69.99
46534;BME280;32260;52.008;4.752;2023-12-20T00:22:48;101708.97;;;9.00;69.84
46534;BME280;32260;52.008;4.752;2023-12-20T00:25:15;101692.22;;;9.03;70.17
46534;BME280;32260;52.008;4.752;2023-12-20T00:27:41;101695.78;;;9.11;69.77
46534;BME280;32260;52.008;4.752;2023-12-20T00:30:08;101695.75;;;9.13;70.02
46534;BME280;32260;52.008;4.752;2023-12-20T00:32:35;101692.22;;;9.03;70.00
46534;BME280;32260;52.008;4.752;2023-12-20T00:35:02;101689.59;;;9.07;70.17
46534;BME280;32260;52.008;4.752;2023-12-20T00:37:28;101679.88;;;9.08;70.67
46534;BME280;32260;52.008;4.752;2023-12-20T00:39:54;101679.91;;;9.13;70.67
46534;BME280;32260;52.008;4.752;2023-12-20T00:42:20;101686.97;;;9.01;70.50
46534;BME280;32260;52.008;4.752;2023-12-20T00:44:46;101694.00;;;9.10;70.13
46534;BME280;32260;52.008;4.752;2023-12-20T00:47:12;101688.72;;;9.09;70.67
46534;BME280;32260;52.008;4.752;2023-12-20T00:49:39;101687.84;;;9.13;70.46
46534;BME280;32260;52.008;4.752;2023-12-20T00:52:05;101694.88;;;9.07;70.26
46534;BME280;32260;52.008;4.752;2023-12-20T00:54:31;101686.97;;;9.06;69.98
46534;BME280;32260;52.008;4.752;2023-12-20T00:56:58;101693.09;;;9.10;69.93
46534;BME280;32260;52.008;4.752;2023-12-20T00:59:24;101681.66;;;9.14;70.42
46534;BME280;32260;52.008;4.752;2023-12-20T01:01:50;101678.13;;;9.13;70.10
46534;BME280;32260;52.008;4.752;2023-12-20T01:04:17;101678.13;;;9.22;70.04
46534;BME280;32260;52.008;4.752;2023-12-20T01:06:43;101677.22;;;9.22;70.55
46534;BME280;32260;52.008;4.752;2023-12-20T01:09:09;101692.25;;;9.26;69.99
46534;BME280;32260;52.008;4.752;2023-12-20T01:11:35;101690.47;;;9.27;70.16
46534;BME280;32260;52.008;4.752;2023-12-20T01:14:01;101689.56;;;9.29;69.82
46534;BME280;32260;52.008;4.752;2023-12-20T01:16:28;101702.81;;;9.28;69.63
46534;BME280;32260;52.008;4.752;2023-12-20T01:18:54;101696.63;;;9.30;69.26
46534;BME280;32260;52.008;4.752;2023-12-20T01:21:20;101698.38;;;9.28;68.98
46534;BME280;32260;52.008;4.752;2023-12-20T01:23:46;101684.25;;;9.42;69.08
46534;BME280;32260;52.008;4.752;2023-12-20T01:26:12;101678.09;;;9.43;68.75
46534;BME280;32260;52.008;4.752;2023-12-20T01:28:38;101687.78;;;9.34;68.41
46534;BME280;32260;52.008;4.752;2023-12-20T01:31:05;101689.53;;;9.49;68.96
46534;BME280;32260;52.008;4.752;2023-12-20T01:33:31;101686.06;;;9.35;68.08
46534;BME280;32260;52.008;4.752;2023-12-20T01:35:57;101697.50;;;9.42;69.14
46534;BME280;32260;52.008;4.752;2023-12-20T01:38:23;101689.56;;;9.40;68.93
46534;BME280;32260;52.008;4.752;2023-12-20T01:40:49;101686.88;;;9.49;68.96
46534;BME280;32260;52.008;4.752;2023-12-20T01:43:16;101681.63;;;9.51;68.26
46534;BME280;32260;52.008;4.752;2023-12-20T01:45:42;101674.56;;;9.45;68.46
46534;BME280;32260;52.008;4.752;2023-12-20T01:48:09;101678.09;;;9.53;68.59
46534;BME280;32260;52.008;4.752;2023-12-20T01:50:38;101677.19;;;9.53;68.10
46534;BME280;32260;52.008;4.752;2023-12-20T01:53:07;101669.25;;;9.58;68.24
46534;BME280;32260;52.008;4.752;2023-12-20T01:55:36;101671.03;;;9.52;68.07
46534;BME280;32260;52.008;4.752;2023-12-20T01:58:04;101681.63;;;9.52;68.54
46534;BME280;32260;52.008;4.752;2023-12-20T02:00:31;101681.59;;;9.49;68.35
46534;BME280;32260;52.008;4.752;2023-12-20T02:03:00;101680.72;;;9.52;68.61
46534;BME280;32260;52.008;4.752;2023-12-20T02:05:27;101674.56;;;9.50;68.66
46534;BME280;32260;52.008;4.752;2023-12-20T02:07:54;101690.44;;;9.56;67.87
46534;BME280;32260;52.008;4.752;2023-12-20T02:10:20;101686.00;;;9.61;68.19
46534;BME280;32260;52.008;4.752;2023-12-20T02:12:46;101690.41;;;9.53;67.24
46534;BME280;32260;52.008;4.752;2023-12-20T02:15:12;101676.31;;;9.59;67.23
46534;BME280;32260;52.008;4.752;2023-12-20T02:17:39;101685.13;;;9.58;67.31
46534;BME280;32260;52.008;4.752;2023-12-20T02:20:06;101693.94;;;9.50;67.32
46534;BME280;32260;52.008;4.752;2023-12-20T02:22:32;101683.34;;;9.67;67.38
46534;BME280;32260;52.008;4.752;2023-12-20T02:24:59;101681.56;;;9.66;67.19
46534;BME280;32260;52.008;4.752;2023-12-20T02:27:25;101679.81;;;9.70;67.68
46534;BME280;32260;52.008;4.752;2023-12-20T02:29:51;101672.78;;;9.66;67.25
46534;BME280;32260;52.008;4.752;2023-12-20T02:32:19;101661.28;;;9.75;67.21
46534;BME280;32260;52.008;4.752;2023-12-20T02:34:47;101658.63;;;9.70;67.13
46534;BME280;32260;52.008;4.752;2023-12-20T02:37:14;101663.88;;;9.79;67.04
46534;BME280;32260;52.008;4.752;2023-12-20T02:39:40;101653.31;;;9.78;66.46
46534;BME280;32260;52.008;4.752;2023-12-20T02:42:06;101661.25;;;9.81;66.58
46534;BME280;32260;52.008;4.752;2023-12-20T02:44:32;101663.00;;;9.79;66.67
46534;BME280;32260;52.008;4.752;2023-12-20T02:46:59;101659.50;;;9.74;66.66
46534;BME280;32260;52.008;4.752;2023-12-20T02:49:25;101657.75;;;9.69;66.50
46534;BME280;32260;52.008;4.752;2023-12-20T02:51:51;101648.06;;;9.64;66.69
46534;BME280;32260;52.008;4.752;2023-12-20T02:54:17;101650.69;;;9.68;66.26
46534;BME280;32260;52.008;4.752;2023-12-20T02:56:43;101650.66;;;9.81;66.26
46534;BME280;32260;52.008;4.752;2023-12-20T02:59:10;101644.53;;;9.71;66.43
46534;BME280;32260;52.008;4.752;2023-12-20T03:01:41;101645.41;;;9.65;65.92
46534;BME280;32260;52.008;4.752;2023-12-20T03:04:07;101646.25;;;9.77;65.93
46534;BME280;32260;52.008;4.752;2023-12-20T03:06:33;101652.41;;;9.76;65.36
46534;BME280;32260;52.008;4.752;2023-12-20T03:08:59;101641.88;;;9.69;65.79
46534;BME280;32260;52.008;4.752;2023-12-20T03:11:29;101638.28;;;9.81;66.00
46534;BME280;32260;52.008;4.752;2023-12-20T03:13:55;101639.22;;;9.77;66.05
46534;BME280;32260;52.008;4.752;2023-12-20T03:16:21;101632.19;;;9.62;66.03
46534;BME280;32260;52.008;4.752;2023-12-20T03:18:48;101627.78;;;9.67;66.47
46534;BME280;32260;52.008;4.752;2023-12-20T03:21:14;101631.31;;;9.69;65.99
46534;BME280;32260;52.008;4.752;2023-12-20T03:23:41;101618.03;;;9.77;66.02
46534;BME280;32260;52.008;4.752;2023-12-20T03:26:08;101621.53;;;9.87;65.98
46534;BME280;32260;52.008;4.752;2023-12-20T03:28:35;101625.09;;;9.70;65.99
46534;BME280;32260;52.008;4.752;2023-12-20T03:31:02;101624.25;;;9.68;66.02
46534;BME280;32260;52.008;4.752;2023-12-20T03:33:29;101620.69;;;9.77;65.77
46534;BME280;32260;52.008;4.752;2023-12-20T03:35:55;101625.03;;;9.83;65.66
46534;BME280;32260;52.008;4.752;2023-12-20T03:38:22;101636.59;;;9.60;65.85
46534;BME280;32260;52.008;4.752;2023-12-20T03:40:50;101640.09;;;9.71;65.67
46534;BME280;32260;52.008;4.752;2023-12-20T03:43:16;101633.91;;;9.76;65.65
46534;BME280;32260;52.008;4.752;2023-12-20T03:45:42;101638.34;;;9.67;65.61
46534;BME280;32260;52.008;4.752;2023-12-20T03:48:09;101635.69;;;9.74;65.45
46534;BME280;32260;52.008;4.752;2023-12-20T03:50:35;101638.34;;;9.67;65.46
46534;BME280;32260;52.008;4.752;2023-12-20T03:53:01;101641.00;;;9.63;64.91
46534;BME280;32260;52.008;4.752;2023-12-20T03:55:28;101638.34;;;9.74;64.93
46534;BME280;32260;52.008;4.752;2023-12-20T03:57:54;101632.09;;;9.84;65.19
46534;BME280;32260;52.008;4.752;2023-12-20T04:00:20;101626.88;;;9.68;64.92
46534;BME280;32260;52.008;4.752;2023-12-20T04:02:46;101626.84;;;9.73;64.73
46534;BME280;32260;52.008;4.752;2023-12-20T04:05:13;101640.97;;;9.78;64.76
46534;BME280;32260;52.008;4.752;2023-12-20T04:07:39;101648.94;;;9.64;64.69
46534;BME280;32260;52.008;4.752;2023-12-20T04:10:05;101629.47;;;9.78;64.81
46534;BME280;32260;52.008;4.752;2023-12-20T04:12:32;101641.91;;;9.65;64.71
46534;BME280;32260;52.008;4.752;2023-12-20T04:14:58;101634.81;;;9.71;64.77
46534;BME280;32260;52.008;4.752;2023-12-20T04:17:24;101637.44;;;9.76;65.10
46534;BME280;32260;52.008;4.752;2023-12-20T04:19:51;101640.03;;;9.84;64.91
46534;BME280;32260;52.008;4.752;2023-12-20T04:22:18;101625.06;;;9.81;64.66
46534;BME280;32260;52.008;4.752;2023-12-20T04:24:45;101634.75;;;9.84;64.91
46534;BME280;32260;52.008;4.752;2023-12-20T04:27:11;101633.00;;;9.86;64.87
46534;BME280;32260;52.008;4.752;2023-12-20T04:29:37;101627.69;;;9.83;65.01
46534;BME280;32260;52.008;4.752;2023-12-20T04:32:04;101625.03;;;9.92;64.84
46534;BME280;32260;52.008;4.752;2023-12-20T04:34:31;101631.22;;;9.85;65.03
46534;BME280;32260;52.008;4.752;2023-12-20T04:36:57;101628.56;;;9.82;65.03
46534;BME280;32260;52.008;4.752;2023-12-20T04:39:23;101621.50;;;9.85;65.12
46534;BME280;32260;52.008;4.752;2023-12-20T04:41:49;101620.63;;;9.91;64.80
46534;BME280;32260;52.008;4.752;2023-12-20T04:44:16;101621.56;;;9.81;65.01
46534;BME280;32260;52.008;4.752;2023-12-20T04:46:42;101617.19;;;9.63;65.76
46534;BME280;32260;52.008;4.752;2023-12-20T04:49:08;101606.56;;;9.74;65.37
46534;BME280;32260;52.008;4.752;2023-12-20T04:51:35;101616.31;;;9.61;65.33
46534;BME280;32260;52.008;4.752;2023-12-20T04:54:02;101610.19;;;9.51;65.43
46534;BME280;32260;52.008;4.752;2023-12-20T04:56:28;101611.03;;;9.62;65.12
46534;BME280;32260;52.008;4.752;2023-12-20T04:58:54;101607.50;;;9.55;64.87
46534;BME280;32260;52.008;4.752;2023-12-20T05:01:20;101604.84;;;9.69;65.05
46534;BME280;32260;52.008;4.752;2023-12-20T05:03:47;101601.28;;;9.70;64.85
46534;BME280;32260;52.008;4.752;2023-12-20T05:06:13;101603.97;;;9.63;64.84
46534;BME280;32260;52.008;4.752;2023-12-20T05:08:40;101601.31;;;9.64;64.99
46534;BME280;32260;52.008;4.752;2023-12-20T05:11:07;101612.78;;;9.66;64.80
46534;BME280;32260;52.008;4.752;2023-12-20T05:13:33;101607.47;;;9.66;64.55
46534;BME280;32260;52.008;4.752;2023-12-20T05:15:59;101616.28;;;9.70;64.65
46534;BME280;32260;52.008;4.752;2023-12-20T05:18:25;101603.09;;;9.62;64.87
46534;BME280;32260;52.008;4.752;2023-12-20T05:20:52;101611.03;;;9.64;64.87
46534;BME280;32260;52.008;4.752;2023-12-20T05:23:18;101629.56;;;9.56;64.77
46534;BME280;32260;52.008;4.752;2023-12-20T05:25:46;101625.13;;;9.63;64.86
46534;BME280;32260;52.008;4.752;2023-12-20T05:28:12;101624.28;;;9.56;65.07
46534;BME280;32260;52.008;4.752;2023-12-20T05:30:38;101624.25;;;9.65;64.94
46534;BME280;32260;52.008;4.752;2023-12-20T05:33:04;101622.44;;;9.70;65.06
46534;BME280;32260;52.008;4.752;2023-12-20T05:35:30;101614.50;;;9.75;64.67
46534;BME280;32260;52.008;4.752;2023-12-20T05:37:56;101618.06;;;9.69;65.27
46534;BME280;32260;52.008;4.752;2023-12-20T05:40:23;101614.53;;;9.72;65.27
46534;BME280;32260;52.008;4.752;2023-12-20T05:42:49;101618.91;;;9.78;65.40
46534;BME280;32260;52.008;4.752;2023-12-20T05:45:15;101618.00;;;9.83;65.17
46534;BME280;32260;52.008;4.752;2023-12-20T05:47:41;101605.66;;;9.87;65.24
46534;BME280;32260;52.008;4.752;2023-12-20T05:50:08;101607.44;;;9.77;65.78
46534;BME280;32260;52.008;4.752;2023-12-20T05:52:35;101596.00;;;9.74;65.56
46534;BME280;32260;52.008;4.752;2023-12-20T05:55:01;101592.41;;;9.87;65.39
46534;BME280;32260;52.008;4.752;2023-12-20T05:57:27;101595.91;;;9.92;65.26
46534;BME280;32260;52.008;4.752;2023-12-20T05:59:53;101592.38;;;9.90;65.45
46534;BME280;32260;52.008;4.752;2023-12-20T06:02:19;101611.75;;;9.98;65.26
46534;BME280;32260;52.008;4.752;2023-12-20T06:04:46;101615.28;;;9.97;65.30
46534;BME280;32260;52.008;4.752;2023-12-20T06:07:12;101602.91;;;10.06;65.26
46534;BME280;32260;52.008;4.752;2023-12-20T06:09:39;101606.44;;;10.01;65.30
46534;BME280;32260;52.008;4.752;2023-12-20T06:12:07;101615.22;;;10.10;65.42
46534;BME280;32260;52.008;4.752;2023-12-20T06:14:34;101610.84;;;10.02;65.34
46534;BME280;32260;52.008;4.752;2023-12-20T06:17:00;101606.44;;;10.04;65.70
46534;BME280;32260;52.008;4.752;2023-12-20T06:19:27;101617.94;;;9.96;65.28
46534;BME280;32260;52.008;4.752;2023-12-20T06:21:54;101604.69;;;9.94;65.47
46534;BME280;32260;52.008;4.752;2023-12-20T06:24:20;101608.22;;;9.96;65.53
46534;BME280;32260;52.008;4.752;2023-12-20T06:26:47;101604.63;;;10.07;65.15
46534;BME280;32260;52.008;4.752;2023-12-20T06:29:13;101626.72;;;10.04;64.92
46534;BME280;32260;52.008;4.752;2023-12-20T06:31:39;101600.13;;;10.24;64.86
46534;BME280;32260;52.008;4.752;2023-12-20T06:34:05;101595.72;;;10.20;64.71
46534;BME280;32260;52.008;4.752;2023-12-20T06:36:31;101590.50;;;10.11;64.79
46534;BME280;32260;52.008;4.752;2023-12-20T06:38:58;101608.16;;;10.09;64.88
46534;BME280;32260;52.008;4.752;2023-12-20T06:41:24;101602.75;;;10.24;64.90
46534;BME280;32260;52.008;4.752;2023-12-20T06:43:50;101597.47;;;10.27;64.40
46534;BME280;32260;52.008;4.752;2023-12-20T06:46:18;101595.66;;;10.32;64.60
46534;BME280;32260;52.008;4.752;2023-12-20T06:48:45;101589.53;;;10.26;64.60
46534;BME280;32260;52.008;4.752;2023-12-20T06:51:14;101598.38;;;10.25;64.68
46534;BME280;32260;52.008;4.752;2023-12-20T06:53:41;101597.50;;;10.21;64.79
46534;BME280;32260;52.008;4.752;2023-12-20T06:56:07;101588.66;;;10.24;64.60
46534;BME280;32260;52.008;4.752;2023-12-20T06:58:33;101594.81;;;10.27;64.65
46534;BME280;32260;52.008;4.752;2023-12-20T07:00:59;101586.81;;;10.33;64.55
46534;BME280;32260;52.008;4.752;2023-12-20T07:03:26;101586.81;;;10.40;64.26
46534;BME280;32260;52.008;4.752;2023-12-20T07:05:52;101587.72;;;10.31;64.32
46534;BME280;32260;52.008;4.752;2023-12-20T07:08:18;101576.22;;;10.33;64.53
46534;BME280;32260;52.008;4.752;2023-12-20T07:10:45;101588.59;;;10.34;64.59
46534;BME280;32260;52.008;4.752;2023-12-20T07:13:11;101580.75;;;10.20;64.91
46534;BME280;32260;52.008;4.752;2023-12-20T07:15:38;101571.81;;;10.37;64.43
46534;BME280;32260;52.008;4.752;2023-12-20T07:18:04;101578.88;;;10.36;64.84
46534;BME280;32260;52.008;4.752;2023-12-20T07:20:32;101571.81;;;10.37;64.26
46534;BME280;32260;52.008;4.752;2023-12-20T07:22:58;101569.16;;;10.39;64.35
46534;BME280;32260;52.008;4.752;2023-12-20T07:25:24;101568.28;;;10.40;64.06
46534;BME280;32260;52.008;4.752;2023-12-20T07:27:50;101561.22;;;10.32;64.41
46534;BME280;32260;52.008;4.752;2023-12-20T07:30:16;101566.50;;;10.34;64.38
46534;BME280;32260;52.008;4.752;2023-12-20T07:32:43;101565.63;;;10.33;64.58
46534;BME280;32260;52.008;4.752;2023-12-20T07:35:09;101560.41;;;10.21;64.96
46534;BME280;32260;52.008;4.752;2023-12-20T07:37:35;101570.13;;;10.19;64.82
46534;BME280;32260;52.008;4.752;2023-12-20T07:40:03;101571.91;;;10.15;64.94
46534;BME280;32260;52.008;4.752;2023-12-20T07:42:30;101571.94;;;10.14;65.02
46534;BME280;32260;52.008;4.752;2023-12-20T07:44:56;101587.81;;;10.14;65.12
46534;BME280;32260;52.008;4.752;2023-12-20T07:47:22;101586.91;;;10.18;65.20
46534;BME280;32260;52.008;4.752;2023-12-20T07:49:49;101589.59;;;10.15;65.28
46534;BME280;32260;52.008;4.752;2023-12-20T07:52:17;101586.94;;;10.15;65.22
46534;BME280;32260;52.008;4.752;2023-12-20T07:54:44;101586.06;;;10.16;65.33
46534;BME280;32260;52.008;4.752;2023-12-20T07:57:11;101593.94;;;10.25;65.41
46534;BME280;32260;52.008;4.752;2023-12-20T07:59:37;101599.25;;;10.22;65.41
46534;BME280;32260;52.008;4.752;2023-12-20T08:02:03;101609.81;;;10.27;65.00
46534;BME280;32260;52.008;4.752;2023-12-20T08:04:30;101602.75;;;10.29;65.06
46534;BME280;32260;52.008;4.752;2023-12-20T08:06:56;101611.59;;;10.26;65.31
46534;BME280;32260;52.008;4.752;2023-12-20T08:09:22;101610.66;;;10.33;64.96
46534;BME280;32260;52.008;4.752;2023-12-20T08:11:49;101619.50;;;10.37;65.00
46534;BME280;32260;52.008;4.752;2023-12-20T08:14:15;101615.09;;;10.31;64.95
46534;BME280;32260;52.008;4.752;2023-12-20T08:17:02;101598.28;;;10.40;64.92
46534;BME280;32260;52.008;4.752;2023-12-20T08:19:28;101605.38;;;10.36;65.08
46534;BME280;32260;52.008;4.752;2023-12-20T08:21:54;101592.06;;;10.43;64.71
46534;BME280;32260;52.008;4.752;2023-12-20T08:24:21;101605.34;;;10.41;65.14
46534;BME280;32260;52.008;4.752;2023-12-20T08:26:47;101584.06;;;10.54;64.81
46534;BME280;32260;52.008;4.752;2023-12-20T08:29:14;101584.16;;;10.41;65.23
46534;BME280;32260;52.008;4.752;2023-12-20T08:31:40;101583.25;;;10.47;65.43
46534;BME280;32260;52.008;4.752;2023-12-20T08:34:06;101578.75;;;10.57;65.13
46534;BME280;32260;52.008;4.752;2023-12-20T08:36:32;101573.47;;;10.54;64.94
46534;BME280;32260;52.008;4.752;2023-12-20T08:38:58;101581.44;;;10.49;64.96
46534;BME280;32260;52.008;4.752;2023-12-20T08:41:26;101596.47;;;10.45;65.29
46534;BME280;32260;52.008;4.752;2023-12-20T08:43:52;101598.13;;;10.63;64.86
46534;BME280;32260;52.008;4.752;2023-12-20T08:46:18;101607.81;;;10.63;64.82
46534;BME280;32260;52.008;4.752;2023-12-20T08:48:45;101603.41;;;10.65;64.89
46534;BME280;32260;52.008;4.752;2023-12-20T08:51:11;101604.31;;;10.62;64.98
46534;BME280;32260;52.008;4.752;2023-12-20T08:53:37;101614.94;;;10.56;64.67
46534;BME280;32260;52.008;4.752;2023-12-20T08:56:04;101610.56;;;10.54;64.68
46534;BME280;32260;52.008;4.752;2023-12-20T08:58:30;101596.34;;;10.62;64.05
46534;BME280;32260;52.008;4.752;2023-12-20T09:00:57;101614.84;;;10.70;63.89
46534;BME280;32260;52.008;4.752;2023-12-20T09:03:23;101599.00;;;10.65;64.00
46534;BME280;32260;52.008;4.752;2023-12-20T09:05:49;101593.53;;;10.81;63.93
46534;BME280;32260;52.008;4.752;2023-12-20T09:08:15;101597.97;;;10.79;63.69
46534;BME280;32260;52.008;4.752;2023-12-20T09:10:41;101592.63;;;10.85;63.60
46534;BME280;32260;52.008;4.752;2023-12-20T09:13:07;101596.97;;;10.92;63.82
46534;BME280;32260;52.008;4.752;2023-12-20T09:15:34;101585.38;;;11.04;63.38
46534;BME280;32260;52.008;4.752;2023-12-20T09:18:00;101580.06;;;11.06;63.03
46534;BME280;32260;52.008;4.752;2023-12-20T09:20:26;101583.59;;;11.05;63.44
46534;BME280;32260;52.008;4.752;2023-12-20T09:22:53;101578.25;;;11.08;63.16
46534;BME280;32260;52.008;4.752;2023-12-20T09:25:19;101588.03;;;11.03;63.54
46534;BME280;32260;52.008;4.752;2023-12-20T09:27:46;101573.94;;;10.97;63.24
46534;BME280;32260;52.008;4.752;2023-12-20T09:30:12;101582.72;;;11.06;63.27
46534;BME280;32260;52.008;4.752;2023-12-20T09:32:38;101589.66;;;11.16;63.22
46534;BME280;32260;52.008;4.752;2023-12-20T09:35:05;101590.56;;;11.15;62.79
46534;BME280;32260;52.008;4.752;2023-12-20T09:37:32;101599.41;;;11.14;63.11
46534;BME280;32260;52.008;4.752;2023-12-20T09:39:58;101588.81;;;11.12;63.12
46534;BME280;32260;52.008;4.752;2023-12-20T09:42:39;101588.59;;;11.32;63.09
46534;BME280;32260;52.008;4.752;2023-12-20T09:45:09;101598.41;;;11.26;62.88
46534;BME280;32260;52.008;4.752;2023-12-20T09:47:39;101587.75;;;11.29;63.10
46534;BME280;32260;52.008;4.752;2023-12-20T09:50:06;101598.25;;;11.40;63.07
46534;BME280;32260;52.008;4.752;2023-12-20T09:52:36;101597.38;;;11.41;62.87
46534;BME280;32260;52.008;4.752;2023-12-20T09:55:03;101605.41;;;11.33;63.19
46534;BME280;32260;52.008;4.752;2023-12-20T09:57:32;101615.13;;;11.36;63.29
46534;BME280;32260;52.008;4.752;2023-12-20T09:59:58;101601.78;;;11.39;62.95
46534;BME280;32260;52.008;4.752;2023-12-20T10:02:25;101619.47;;;11.40;62.72
46534;BME280;32260;52.008;4.752;2023-12-20T10:04:53;101622.19;;;11.37;63.25
46534;BME280;32260;52.008;4.752;2023-12-20T10:07:20;101597.25;;;11.50;62.53
46534;BME280;32260;52.008;4.752;2023-12-20T10:09:48;101610.53;;;11.52;63.13
46534;BME280;32260;52.008;4.752;2023-12-20T10:12:14;101606.97;;;11.53;62.44
46534;BME280;32260;52.008;4.752;2023-12-20T10:14:40;101612.13;;;11.63;62.34
46534;BME280;32260;52.008;4.752;2023-12-20T10:17:07;101605.97;;;11.63;62.35
46534;BME280;32260;52.008;4.752;2023-12-20T10:19:33;101599.78;;;11.61;62.41
46534;BME280;32260;52.008;4.752;2023-12-20T10:22:00;101609.56;;;11.56;62.76
46534;BME280;32260;52.008;4.752;2023-12-20T10:24:28;101602.34;;;11.67;62.42
46534;BME280;32260;52.008;4.752;2023-12-20T10:27:02;101611.34;;;11.57;61.79
46534;BME280;32260;52.008;4.752;2023-12-20T10:29:33;101587.28;;;11.71;61.79
46534;BME280;32260;52.008;4.752;2023-12-20T10:32:02;101585.59;;;11.63;61.77
46534;BME280;32260;52.008;4.752;2023-12-20T10:34:46;101587.25;;;11.72;61.19
46534;BME280;32260;52.008;4.752;2023-12-20T10:37:12;101585.66;;;11.57;62.11
46534;BME280;32260;52.008;4.752;2023-12-20T10:39:39;101579.53;;;11.52;61.67
46534;BME280;32260;52.008;4.752;2023-12-20T10:42:06;101585.56;;;11.67;61.77
46534;BME280;32260;52.008;4.752;2023-12-20T10:44:33;101585.47;;;11.74;62.00
46534;BME280;32260;52.008;4.752;2023-12-20T10:46:59;101571.44;;;11.64;61.77
46534;BME280;32260;52.008;4.752;2023-12-20T10:49:26;101572.34;;;11.62;61.69
46534;BME280;32260;52.008;4.752;2023-12-20T10:51:55;101562.69;;;11.55;61.87
46534;BME280;32260;52.008;4.752;2023-12-20T10:54:23;101570.63;;;11.58;62.13
46534;BME280;32260;52.008;4.752;2023-12-20T10:56:52;101576.56;;;11.77;61.47
46534;BME280;32260;52.008;4.752;2023-12-20T10:59:20;101569.53;;;11.74;61.56
46534;BME280;32260;52.008;4.752;2023-12-20T11:01:49;101557.88;;;11.85;61.23
46534;BME280;32260;52.008;4.752;2023-12-20T11:04:22;101553.50;;;11.82;62.02
46534;BME280;32260;52.008;4.752;2023-12-20T11:09:31;101564.19;;;11.76;62.46
46534;BME280;32260;52.008;4.752;2023-12-20T11:14:55;101557.00;;;11.84;61.59
46534;BME280;32260;52.008;4.752;2023-12-20T11:17:23;101543.75;;;11.81;62.31
46534;BME280;32260;52.008;4.752;2023-12-20T11:22:32;101534.03;;;11.80;61.97
46534;BME280;32260;52.008;4.752;2023-12-20T11:25:09;101531.09;;;12.03;62.16
46534;BME280;32260;52.008;4.752;2023-12-20T11:27:40;101545.31;;;11.99;61.78
46534;BME280;32260;52.008;4.752;2023-12-20T11:30:09;101553.44;;;11.87;61.76
46534;BME280;32260;52.008;4.752;2023-12-20T11:32:36;101535.59;;;11.95;61.86
46534;BME280;32260;52.008;4.752;2023-12-20T11:35:22;101535.47;;;12.06;61.92
46534;BME280;32260;52.008;4.752;2023-12-20T11:37:49;101529.44;;;11.96;61.27
46534;BME280;32260;52.008;4.752;2023-12-20T11:40:17;101505.38;;;12.07;61.64
46534;BME280;32260;52.008;4.752;2023-12-20T11:42:48;101505.47;;;12.01;61.46
46534;BME280;32260;52.008;4.752;2023-12-20T11:45:16;101512.44;;;12.08;61.17
46534;BME280;32260;52.008;4.752;2023-12-20T11:47:47;101500.13;;;12.04;61.42
46534;BME280;32260;52.008;4.752;2023-12-20T11:50:13;101499.34;;;11.94;61.73
46534;BME280;32260;52.008;4.752;2023-12-20T11:52:39;101505.31;;;12.10;60.87
46534;BME280;32260;52.008;4.752;2023-12-20T11:55:06;101512.53;;;12.02;61.04
46534;BME280;32260;52.008;4.752;2023-12-20T11:57:33;101505.47;;;12.01;61.39
46534;BME280;32260;52.008;4.752;2023-12-20T11:59:59;101512.69;;;11.89;61.37
46534;BME280;32260;52.008;4.752;2023-12-20T12:02:26;101523.31;;;11.89;61.34
46534;BME280;32260;52.008;4.752;2023-12-20T12:04:52;101511.63;;;12.01;61.01
46534;BME280;32260;52.008;4.752;2023-12-20T12:07:18;101512.53;;;12.02;61.64
46534;BME280;32260;52.008;4.752;2023-12-20T12:09:45;101521.31;;;12.07;61.14
46534;BME280;32260;52.008;4.752;2023-12-20T12:12:12;101516.97;;;12.00;61.54
46534;BME280;32260;52.008;4.752;2023-12-20T12:14:39;101493.03;;;12.03;60.96
46534;BME280;32260;52.008;4.752;2023-12-20T12:17:11;101504.47;;;12.08;61.28
46534;BME280;32260;52.008;4.752;2023-12-20T12:19:38;101502.09;;;11.86;61.15
46534;BME280;32260;52.008;4.752;2023-12-20T12:24:43;101484.28;;;11.94;61.74
46534;BME280;32260;52.008;4.752;2023-12-20T12:27:11;101485.03;;;12.04;60.84
46534;BME280;32260;52.008;4.752;2023-12-20T12:29:40;101479.63;;;12.10;61.30
46534;BME280;32260;52.008;4.752;2023-12-20T12:32:08;101489.53;;;12.01;60.36
46534;BME280;32260;52.008;4.752;2023-12-20T12:34:35;101489.59;;;11.97;60.79
46534;BME280;32260;52.008;4.752;2023-12-20T12:37:03;101481.53;;;12.02;60.61
46534;BME280;32260;52.008;4.752;2023-12-20T12:39:30;101486.94;;;11.94;60.19
46534;BME280;32260;52.008;4.752;2023-12-20T12:41:56;101476.06;;;12.13;60.49
46534;BME280;32260;52.008;4.752;2023-12-20T12:44:24;101464.50;;;12.16;59.93
46534;BME280;32260;52.008;4.752;2023-12-20T12:46:52;101458.53;;;12.01;60.23
46534;BME280;32260;52.008;4.752;2023-12-20T12:49:20;101456.53;;;12.16;59.76
46534;BME280;32260;52.008;4.752;2023-12-20T12:51:47;101447.44;;;12.29;59.57
46534;BME280;32260;52.008;4.752;2023-12-20T12:54:14;101457.63;;;12.04;60.22
46534;BME280;32260;52.008;4.752;2023-12-20T12:56:42;101453.00;;;12.15;60.42
46534;BME280;32260;52.008;4.752;2023-12-20T12:59:09;101469.94;;;12.08;59.94
46534;BME280;32260;52.008;4.752;2023-12-20T13:01:35;101453.84;;;12.17;59.77
46534;BME280;32260;52.008;4.752;2023-12-20T13:04:02;101456.69;;;12.05;59.98